Alpha, California Weather observations

Data are for observation ending at time listed.
 Day   Time    Ave.   Ave.  Ave.  Vector   Max.   Stn.    Total    Solar   Ave.   Snow 
  of    of     Air    Rel.  Wind   Wind    Wind   Baro.  Precip.   Rad.    Soil   Depth
Year   Day     Temp.  Hum.  Speed  Dir.    Gust   Pres.                    Temp.       
2017   (PST)    F      %     mph   deg.    mph     mb.     in.     W/m2     F      in. 
---------------------------------------------------------------------------------------  
  20   21:40  999.0   999  999.0   999    999.0   999.0   999.00       0    999.0  999.0
  20   21:50  999.0   999  999.0   999    999.0   999.0   999.00     999    999.0  999.0
  20   22:00  999.0   999  999.0   999    999.0   999.0   999.00     999    999.0  999.0
  20   22:10  999.0   999  999.0   999    999.0   999.0   999.00     999    999.0  999.0
  20   22:20  999.0   999  999.0   999    999.0   999.0   999.00     999    999.0  999.0
  20   22:30  999.0   999  999.0   999    999.0   999.0   999.00     999    999.0  999.0
  20   22:40   19.2    91    2.2   184      5.1   760.8    0.00       0    -14710.0  120.1
  20   22:50   19.2    91    2.8   186      6.7   760.8    0.00       0    -14710.0   23.4
  20   23:00  999.0   999  999.0   999    999.0   999.0   999.00     999    999.0  999.0
  20   23:10  999.0   999  999.0   999    999.0   999.0   999.00     999    999.0  999.0
  20   23:20  999.0   999  999.0   999    999.0   999.0   999.00     999    999.0  999.0
  20   23:30  999.0   999  999.0   999    999.0   999.0   999.00     999    999.0  999.0
  20   23:40  999.0   999  999.0   999    999.0   999.0   999.00     999    999.0  999.0
  20   23:50  999.0   999  999.0   999    999.0   999.0   999.00     999    999.0  999.0
  21    0:00  999.0   999  999.0   999    999.0   999.0   999.00     999    999.0  999.0
  21    0:10  999.0   999  999.0   999    999.0   999.0   999.00     999    999.0  999.0
  21    0:20  999.0   999  999.0   999    999.0   999.0   999.00     999    999.0  999.0
  21    0:30  999.0   999  999.0   999    999.0   999.0   999.00     999    999.0  999.0
  21    0:40  999.0   999  999.0   999    999.0   999.0   999.00     999    999.0  999.0
  21    0:50  999.0   999  999.0   999    999.0   999.0   999.00     999    999.0  999.0
  21    1:00  999.0   999  999.0   999    999.0   999.0   999.00     999    999.0  999.0
  21    1:10  999.0   999  999.0   999    999.0   999.0   999.00     999    999.0  999.0
  21    1:20  999.0   999  999.0   999    999.0   999.0   999.00     999    999.0  999.0
  21    1:30  999.0   999  999.0   999    999.0   999.0   999.00     999    999.0  999.0
  21    1:40   18.8    91    3.4   212      6.4   762.9    0.00       0    -14710.0  123.7
  21    1:50  999.0   999  999.0   999    999.0   999.0   999.00     999    999.0  999.0
  21    2:00  999.0   999  999.0   999    999.0   999.0   999.00     999    999.0  999.0
  21    2:10  999.0   999  999.0   999    999.0   999.0   999.00     999    999.0  999.0
  21    2:20  999.0   999  999.0   999    999.0   999.0   999.00     999    999.0  999.0
  21    2:30  999.0   999  999.0   999    999.0   999.0   999.00     999    999.0  999.0
  21    2:40  999.0   999    1.4   289    999.0   999.0   999.00       0    999.0  999.0
  21    2:50  999.0   999  999.0   999    999.0   999.0   999.00     999    999.0  999.0
  21    3:00  999.0   999  999.0   999    999.0   999.0   999.00     999    999.0  999.0
  21    3:10  999.0   999  999.0   999    999.0   999.0   999.00     999    999.0  999.0
  21    3:20  999.0   999  999.0   999    999.0   999.0   999.00     999    999.0  999.0
  21    3:30  999.0   999  999.0   999    999.0   999.0   999.00     999    999.0  999.0
  21    3:40   20.5    23    2.4   158      6.0    23.1   23.40       0    -11974.0   -6.4
  21    3:50  999.0   999  999.0   999    999.0   999.0   999.00     999    999.0  999.0
  21    4:00  999.0   999  999.0   999    999.0   999.0   999.00     999    999.0  999.0
  21    4:10  999.0   999  999.0   999    999.0   999.0   999.00     999    999.0  999.0
  21    4:20  999.0   999  999.0   999    999.0   999.0   999.00     999    999.0  999.0
  21    4:30  999.0   999  999.0   999    999.0   999.0   999.00     999    999.0  999.0
  21    4:40  999.0   999  999.0   999    999.0   999.0   999.00     999    999.0  999.0
  21    4:50  999.0   999  999.0   999    999.0   999.0   999.00     999    999.0  999.0
  21    5:00  999.0   999  999.0   999    999.0   999.0   999.00     999    999.0  999.0
  21    5:10  999.0   999  999.0   999    999.0   999.0   999.00     999    999.0  999.0
  21    5:20  999.0   999  999.0   999    999.0   999.0   999.00     999    999.0  999.0
  21    5:30  999.0   999  999.0   999    999.0   999.0   999.00     999    999.0  999.0
  21    5:40   18.6    91    0.0     0      0.0   765.7    0.00       0    -14710.0  125.8
  21    5:50   18.7    91    0.0     0      0.0   765.9    0.00       0    -14710.0  125.9
  21    6:00   18.8    91    0.0     0      0.0   766.2    0.00       0    -14710.0  126.2
  21    6:10   18.9    91    2.0   199     10.4   766.5    0.00       0    -14710.0  125.4
  21    6:20   19.1    91    2.7   193      7.5   766.8    0.00       0    -14710.0  126.0
  21    6:30  1190.5     3   28.5    23     15.2    23.4   234.00       0    74.1  -643.6
  21    6:40   19.3    91    2.5   202      5.3   767.2    0.00       0    -14710.0  126.2
  21    6:50  999.0   999  999.0   999    999.0   999.0   999.00     999    999.0  999.0
  21    7:00  999.0   999  999.0   999    999.0   999.0   999.00     999    999.0  999.0
  21    7:10  999.0   999  999.0   999    999.0   999.0   999.00     999    999.0  999.0
  21    7:20  999.0   999  999.0   999    999.0   999.0   999.00     999    999.0  999.0
  21    7:30  999.0   999  999.0   999    999.0   999.0   999.00     999    999.0  999.0
  21    7:40   19.1    91    1.9   186      7.4   768.4    0.00       6    -14710.0  126.8
  21    7:50   19.0    91    2.1   178      5.8   768.7    0.00      10    -14710.0  126.7
  21    8:00   19.0    91    2.0   168      5.4   768.7    0.00      10    -14710.0  126.6
  21    8:10   19.0    91    2.0   182      4.7   768.8    0.00       9    -14710.0  126.2
  21    8:20   19.1    91    2.3   170      5.0   769.0    0.00       8    -14710.0  125.8
  21    8:30   19.0    91    2.6   172      5.6   769.2    0.00      10    -14710.0  126.3
  21    8:40  999.0   999  999.0   999    999.0   999.0   999.00     999    999.0  999.0
  21    8:50  999.0   999  999.0   999    999.0   999.0   999.00     999    999.0  999.0
  21    9:00  999.0   999  999.0   999    999.0   999.0   999.00     999    999.0  999.0
  21    9:10  999.0   999  999.0   999    999.0   999.0   999.00     999    999.0  999.0
  21    9:20  999.0   999  999.0   999    999.0   999.0   999.00     999    999.0  999.0
  21    9:30  999.0   999  999.0   999    999.0   999.0   999.00     999    999.0  999.0
  21    9:40   20.3   999    2.4   185      6.7   999.0   999.00      42    999.0  999.0
  21    9:50  999.0   999  999.0   999    999.0   999.0   999.00     999    999.0  999.0
  21   10:00  999.0   999  999.0   999    999.0   999.0   999.00     999    999.0  999.0
  21   10:10  999.0   999  999.0   999    999.0   999.0   999.00     999    999.0  999.0
  21   10:20  999.0   999  999.0   999    999.0   999.0   999.00     999    999.0  999.0
  21   10:30  999.0   999  999.0   999    999.0   999.0   999.00     999    999.0  999.0
  21   10:40   21.3    92    3.0   156      8.0   771.9    0.00      68    -14710.0  128.1
  21   10:50   21.6    92    3.2   148      9.3   772.3    0.00      87    -14710.0  128.1
  21   11:00   21.8    92    2.4   158      6.2   772.4    0.00      95    -14710.0  128.1
  21   11:10   22.2    92    2.0   175      4.4   772.5    0.00      92    -14710.0  128.0
  21   11:20   22.5    92    2.4   166      6.6   772.5    0.00      53    -14710.0  127.9
  21   11:30   22.6    92    1.8   172      4.2   772.8    0.00      80    -14710.0  127.8
  21   11:40   22.7    92    2.8   141      5.4   999.0   999.00      96    999.0  999.0
  21   11:50  999.0   999  999.0   999    999.0   999.0   999.00     999    999.0  999.0
  21   12:00  999.0   999  999.0   999    999.0   999.0   999.00     999    999.0  999.0
  21   12:10  999.0   999  999.0   999    999.0   999.0   999.00     999    999.0  999.0
  21   12:20  999.0   999  999.0   999    999.0   999.0   999.00     999    999.0  999.0
  21   12:30  999.0   999  999.0   999    999.0   999.0   999.00     999    999.0  999.0
  21   12:40   23.3    93    3.5   125      9.6   772.9    0.00     122    -14710.0  128.4
  21   12:50   23.3    93    1.8   168      5.3   773.1    0.00      86    -14710.0  127.8
  21   13:00   23.5    93    1.8   166      4.5   773.4    0.00      98    -14710.0  128.2
  21   13:10   23.7    93    2.4   160      5.0   773.6    0.00     108    -14710.0  128.2
  21   13:20   23.9    93    2.4   148      5.8   773.7    0.00     112    -14710.0  128.2
  21   13:30   24.2    93    1.7   161      6.4   773.7    0.00     153    -14710.0  128.2
  21   13:40   24.6    93    2.7   137      6.4   773.8    0.00     119    -14710.0  128.0
  21   13:50   24.8    93    2.1   157      5.3   774.0    0.00     129    -14710.0  127.7
  21   14:00   24.9    93    3.1   138     10.2   774.1    0.00     103    -14710.0  127.8
  21   14:10   24.6    93    2.3   149      5.3   774.4    0.00      91    -14710.0  128.0
  21   14:20   24.3    93    1.6   167      3.8   774.5    0.00      76    -14710.0  128.0
  21   14:30   24.1    93    2.5   147      6.7   774.6    0.00     111    -14710.0  127.8
  21   14:40   24.0    93    2.9   142      7.7   774.7    0.00      86    -14710.0  127.7
  21   14:50   24.0    93    3.9   129      6.8   774.5    0.00      72    -14710.0  127.7
  21   15:00   23.7    93    4.9   123      8.6   774.6    0.00      86    -14710.0  127.5
  21   15:10   23.4    93    4.3   121      8.0   774.5    0.00      92    -14710.0  127.3
  21   15:20   23.3    92    2.3   143      4.8   774.7    0.00      78    -14710.0  127.5
  21   15:30   23.3    93    2.5   141      5.8   774.8    0.00      66    -14710.0  127.7
  21   15:40   23.4    93    4.1   127      6.2   774.7    0.00      61    -14710.0  127.6
  21   15:50   23.2    93    3.9   123      6.2   774.6    0.00      43    -14710.0  127.7
  21   16:00   23.0    92    3.4   126      5.3   774.7    0.00      34    -14710.0  127.7
  21   16:10   22.8    92    3.0   129      4.4   774.9    0.00      30    -14710.0  127.7
  21   16:20   22.5    92    2.7   130      4.8   775.1    0.00      24    -14710.0  127.5
  21   16:30   22.3    92    2.1   141      5.0   775.1    0.00      17    -14710.0  127.4
  21   16:40   22.2    92    3.5   119      6.6   775.1    0.00      13    -14710.0  127.4
  21   16:50   21.9    92    2.3   144      5.3   775.1    0.00       8    -14710.0  127.4
  21   17:00   21.7    92    3.8   124      6.0   775.2    0.00       4    -14710.0  127.4
  21   17:10   21.5    92    3.4   117      6.3   775.3    0.00       1    -14710.0  127.3
  21   17:20   21.4    92    3.8   117      5.6   775.3    0.00       1    -14710.0  127.3
  21   17:30   21.1    92    4.1   111      6.3   775.5    0.00       0    -14710.0  127.2
  21   17:40   20.9    92    3.6   116      5.7   775.6    0.00       0    -14710.0  127.2
  21   17:50   20.6    92    3.9   120      5.0   775.6    0.00       0    -14710.0  127.2
  21   18:00   20.4    92    4.1   109      6.7   775.4    0.00       0    -14710.0  127.2
  21   18:10   20.2    91    5.0   107      7.8   775.3    0.00       0    -14710.0  126.7
  21   18:20   20.1    91    5.8    97      9.9   775.3    0.00       0    -14710.0  126.8
  21   18:30   20.0    91    6.2    98      8.6   775.2    0.00       0    -14710.0  126.7
  21   18:40   19.9    91    5.7    96      8.5   775.3    0.00       0    -14710.0  126.0
  21   18:50   19.9    91    5.7   102      8.1   775.3    0.00       0    -14710.0  126.6
  21   19:00   19.9    91    4.7   109      7.7   775.2    0.00       0    -14710.0  126.6
  21   19:10   19.9    91    4.5   104      8.4   775.2    0.00       0    -14710.0  126.5
  21   19:20   19.9    91    3.7   104      6.7   775.2    0.00       0    -14710.0  126.4
  21   19:30   19.9    91    2.0   106      6.6   775.2    0.00       0    -14710.0  126.3
  21   19:40   19.9    91    2.4   103      6.9   775.1    0.00       0    -14710.0  126.3
  21   19:50   19.8    91    3.9   103      7.7   775.1    0.00       0    -14710.0  126.3
  21   20:00   19.8    91    2.9   105      5.6   775.3    0.00       0    -14710.0  126.3
  21   20:10   19.8    91    3.9   112      7.7   775.5    0.00       0    -14710.0  126.2
  21   20:20   19.7    91    5.4   104      8.3   775.5    0.00       0    -14710.0  126.2
  21   20:30   19.7    91    7.9    86     12.9   775.6    0.00       0    -14710.0  125.9
  21   20:40   19.6    91    8.6    96     14.8   775.5    0.00       0    -14710.0  126.4
  21   20:50   19.6    91    6.2   101     11.9   775.5    0.00       0    -14710.0  126.0
  21   21:00   19.6    91    4.0   116     11.4   775.2    0.00       0    -14710.0  125.9
  21   21:10   19.6    91    3.2   106      7.7   774.9    0.00       0    -14710.0  126.1
  21   21:20   19.6    91    2.8   106      6.9   774.8    0.00       0    -14710.0  126.1
  21   21:30   19.6    91    2.5   107      7.7   774.6    0.00       0    -14710.0  126.1

Return to Alpha graphs page.


Western Regional Climate Center,wrcc@dri.edu